createdAt,value
2023-01-05T14:01:41.552Z,97902.81
2023-01-05T14:06:08.789Z,97898.66
2023-01-05T14:16:37.522Z,97904.13
2023-01-05T14:23:01.640Z,97902.03
2023-01-05T14:30:49.703Z,97916.75
2023-01-05T14:42:32.183Z,97923.88
2023-01-05T14:52:04.114Z,97912.84
2023-01-05T14:54:43.000Z,97932.75
2023-01-05T14:57:33.889Z,97922.84
2023-01-05T15:00:50.249Z,97906.44
2023-01-05T15:03:31.250Z,97933.19
2023-01-05T15:06:30.937Z,97923.41
2023-01-05T15:13:13.055Z,97925.84
2023-01-05T15:19:41.393Z,97928.69
2023-01-05T15:22:54.637Z,97914.63
2023-01-05T15:26:11.292Z,97906.38
2023-01-05T15:29:32.255Z,97924.50
2023-01-05T15:32:20.875Z,97916.69
2023-01-05T15:35:06.263Z,97923.31
2023-01-05T15:37:49.107Z,97932.19
2023-01-05T15:40:20.625Z,97938.94
2023-01-05T15:42:56.164Z,97939.09
2023-01-05T15:45:46.637Z,97939.22
2023-01-05T15:51:49.974Z,97922.91
2023-01-05T15:54:30.730Z,97946.00
2023-01-05T15:57:02.846Z,97932.66
2023-01-05T15:59:49.147Z,97950.53
2023-01-05T16:02:51.883Z,97922.56
2023-01-05T16:05:22.710Z,97970.66
2023-01-05T16:07:58.577Z,97952.84
2023-01-05T16:10:47.268Z,97943.06
2023-01-05T16:13:43.539Z,97955.84
2023-01-05T16:16:51.884Z,97949.72
2023-01-05T16:19:58.184Z,97952.88
2023-01-05T16:22:36.823Z,97983.19
2023-01-05T16:25:28.199Z,97956.28
2023-01-05T16:28:03.461Z,97954.44
2023-01-05T16:30:46.042Z,97949.66
2023-01-05T16:33:36.216Z,97968.97
2023-01-05T16:36:23.194Z,97961.81
2023-01-05T16:38:56.457Z,97978.97
2023-01-05T16:41:37.302Z,97963.69
2023-01-05T16:44:34.527Z,97963.97
2023-01-05T16:47:15.880Z,97961.06
2023-01-05T16:58:32.903Z,97973.84
2023-01-05T17:01:37.485Z,97987.47
2023-01-05T17:04:22.614Z,97965.28
2023-01-05T17:07:04.295Z,97975.69
2023-01-05T17:09:59.415Z,97984.31
2023-01-05T17:13:02.611Z,97989.63
2023-01-05T17:15:36.865Z,97976.72
2023-01-05T17:21:17.479Z,97968.28
2023-01-05T17:24:03.713Z,97974.66
2023-01-05T17:26:39.200Z,97967.78
2023-01-05T17:37:02.604Z,98011.31
2023-01-05T17:47:10.867Z,97992.78
2023-01-05T17:49:49.710Z,97992.03
2023-01-05T17:52:26.634Z,98023.91
2023-01-05T17:54:59.292Z,98012.63
2023-01-05T17:57:34.438Z,98005.84
2023-01-05T18:00:06.385Z,97992.16
2023-01-05T18:03:22.674Z,97997.41
2023-01-05T18:06:15.503Z,98042.84
2023-01-05T18:09:09.795Z,98028.91
2023-01-05T18:12:06.758Z,98040.25
2023-01-05T18:15:17.664Z,98056.03
2023-01-05T18:18:06.857Z,98031.34
2023-01-05T18:20:45.666Z,98051.66
2023-01-05T18:23:56.644Z,98044.94
2023-01-05T18:26:45.137Z,98039.75
2023-01-05T18:29:18.160Z,98028.78
2023-01-05T18:31:55.472Z,98034.69
2023-01-05T18:34:27.088Z,98029.78
2023-01-05T18:37:43.311Z,98057.47
2023-01-05T18:40:30.484Z,98038.19
2023-01-05T18:43:06.249Z,98071.91
2023-01-05T18:45:43.180Z,98050.50
2023-01-05T18:48:16.056Z,98072.75
2023-01-05T18:51:34.080Z,98073.28
2023-01-05T18:54:48.163Z,98072.81
2023-01-05T18:58:52.773Z,98075.78
2023-01-05T19:06:37.038Z,98097.50
2023-01-05T19:44:46.929Z,98113.19
2023-01-05T19:47:37.757Z,98136.91
2023-01-05T19:50:31.789Z,98132.81
2023-01-05T20:10:32.145Z,98164.00
2023-01-05T20:13:21.470Z,98141.81
2023-01-05T20:16:12.977Z,98152.41
2023-01-05T20:32:02.296Z,98178.44
2023-01-05T20:34:48.206Z,98165.63
2023-01-05T20:37:26.486Z,98183.09
2023-01-05T20:40:32.081Z,98193.38
2023-01-05T20:43:00.773Z,98196.47
2023-01-05T20:46:03.093Z,98202.31
2023-01-05T20:48:31.362Z,98201.66
2023-01-05T20:52:16.139Z,98172.28
2023-01-05T20:55:26.546Z,98225.09
2023-01-05T20:57:56.849Z,98201.25
2023-01-05T21:01:30.367Z,98210.88
2023-01-05T21:05:46.921Z,98231.06
2023-01-05T21:08:28.800Z,98256.56
2023-01-05T21:11:07.523Z,98235.06
2023-01-05T21:14:05.607Z,98285.94
2023-01-05T21:17:14.611Z,98238.63
2023-01-05T21:19:53.394Z,98254.78
2023-01-05T21:22:22.971Z,98268.66
2023-01-05T21:24:50.723Z,98216.97
2023-01-05T21:27:19.797Z,98276.16
2023-01-05T21:29:49.042Z,98270.69
2023-01-05T21:32:26.392Z,98263.38
2023-01-05T22:21:35.197Z,98335.44
2023-01-05T22:37:54.178Z,98363.75
